Erie, PA

10:37 PM EDT on August 21, 2014 (GMT -0400)
Ashtabula County | Change Station
CLOSE
Current Station
Airport
Location: Ashtabula,
Elevation: 922 ft
Nearby Weather Stations

Elev 922 ft 41.78 °N, 80.70 °W | Updated 6 minutes ago

Overcast
Overcast
69 °F
Feels Like 69 °F
N
0
Wind Variable Wind from North

Today
High -- | Low -- °F
--% Chance of Precip.
Yesterday
High -- | Low -- °F
Precip. -- in
6:34 AM 8:11 PM
Waning Crescent, 11% visible
Pressure 30.02 in
Visibility 8.0 miles
Clouds Scattered Clouds 1800 ft
Mostly Cloudy 2400 ft
Overcast 3800 ft
Dew Point 67 °F
Humidity 93%
Rainfall 0.03 in
Snow Depth Not available.
UV 0 out of 12
Pollen 9.50 out of 12
Air Quality Not available.
Flu Activity Not available.
SPECI KHZY 220231Z AUTO 00000KT 8SM SCT018 BKN024 OVC038 21/19 A3002 RMK AO2 T02060194

More Conditions Fewer Conditions

Pressure 30.02 in
Visibility 8.0 miles
Clouds Scattered Clouds 1800 ft
Mostly Cloudy 2400 ft
Overcast 3800 ft
Dew Point 67 °F
Humidity 93%
Rainfall 0.03 in
Snow Depth Not available.
UV 0 out of 12
Pollen 9.50 out of 12
Air Quality Not available.
Flu Activity Not available.
SPECI KHZY 220231Z AUTO 00000KT 8SM SCT018 BKN024 OVC038 21/19 A3002 RMK AO2 T02060194

More Conditions Fewer Conditions

10-Day Weather Forecast

Almanac

Astronomy

Aug. 21, 2014 Rise Set
Actual Time 6:34 AM EDT 8:11 PM EDT
Civil Twilight 6:04 AM EDT 8:41 PM EDT
Nautical Twilight 5:28 AM EDT 9:17 PM EDT
Astronomical Twilight 4:50 AM EDT 9:55 PM EDT
Moon 3:01 AM EDT (8/21) 5:41 PM EDT (8/21)
Length of Visible Light 14h 36m
Length of Day
13h 37m
Tomorrow will be 2m 37s shorter.
Waning Crescent, 11% of the Moon is Illuminated
Today
Waning Crescent
Aug 25
New
Sep 2
First Quarter
Sep 8
Full
Sep 15
Last Quarter

Today's Extremes

State Highs State Lows

Community

WunderPhotos

Upload Photos

1,746,109 photos uploaded!

WunderBlogs® & News

Nearby

Snow Depth

Station Depth Elevation
No new snow has been reported.

Earthquake Activity

City Distance Mag. Time & Date
No recent earthquake activity has been reported nearby.
Minimum magnitude displayed is 2.5.

Coastal Water Temperatures

Place Temperature
Fairport, OH 73.0 °F
Buffalo, NY 72.0 °F

Nearby Weather Stations